createdAt,value
2017-07-17T00:02:00.125Z,4.20
2017-07-17T00:04:29.450Z,4.03
2017-07-17T00:06:58.788Z,4.80
2017-07-17T00:09:28.101Z,4.10
2017-07-17T00:11:57.449Z,5.03
2017-07-17T00:14:26.767Z,5.00
2017-07-17T00:16:56.078Z,4.28
2017-07-17T00:19:25.420Z,4.75
2017-07-17T00:21:54.745Z,4.82
2017-07-17T00:24:24.843Z,4.30
2017-07-17T00:26:54.947Z,4.87
2017-07-17T00:29:24.272Z,4.57
2017-07-17T00:31:54.352Z,4.85
2017-07-17T00:34:23.685Z,4.75
2017-07-17T00:36:53.009Z,4.22
2017-07-17T00:39:22.338Z,4.80
2017-07-17T00:41:51.655Z,5.00
2017-07-17T00:44:20.989Z,4.45
2017-07-17T00:46:51.070Z,4.65
2017-07-17T00:49:20.397Z,4.57
2017-07-17T00:51:49.713Z,4.53
2017-07-17T00:54:19.822Z,4.70
2017-07-17T00:56:49.154Z,4.28
2017-07-17T00:59:18.457Z,4.55
2017-07-17T01:01:47.785Z,4.15
2017-07-17T01:04:17.091Z,4.43
2017-07-17T01:06:46.400Z,4.70
2017-07-17T01:09:15.714Z,4.45
2017-07-17T01:11:45.030Z,4.53
2017-07-17T01:14:14.342Z,4.78
2017-07-17T01:16:43.669Z,4.35
2017-07-17T01:19:12.982Z,4.93
2017-07-17T01:21:42.321Z,4.55
2017-07-17T01:24:11.628Z,4.40
2017-07-17T01:26:40.942Z,3.90
2017-07-17T01:29:10.298Z,4.68
2017-07-17T01:31:39.605Z,4.32
2017-07-17T01:34:08.936Z,4.25
2017-07-17T01:36:38.245Z,5.47
2017-07-17T01:39:07.568Z,4.47
2017-07-17T01:41:36.881Z,4.70
2017-07-17T01:44:06.978Z,4.60
2017-07-17T01:46:36.292Z,4.20
2017-07-17T01:49:05.621Z,5.10
2017-07-17T01:51:34.934Z,4.15
2017-07-17T01:54:04.258Z,4.40
2017-07-17T01:56:33.575Z,4.45
2017-07-17T01:59:02.901Z,5.32
2017-07-17T02:01:32.982Z,5.03
2017-07-17T02:04:02.321Z,4.65
2017-07-17T02:06:31.634Z,5.35
2017-07-17T02:09:01.725Z,5.00
2017-07-17T02:11:31.069Z,5.87
2017-07-17T02:14:00.396Z,5.75
2017-07-17T02:16:29.735Z,5.70
2017-07-17T02:18:59.045Z,5.50
2017-07-17T02:21:28.369Z,4.78
2017-07-17T02:23:57.673Z,5.28
2017-07-17T02:26:26.998Z,5.00
2017-07-17T02:28:56.305Z,4.97
2017-07-17T02:31:25.618Z,5.60
2017-07-17T02:33:54.935Z,5.10
2017-07-17T02:36:24.270Z,5.82
2017-07-17T02:38:53.575Z,5.35
2017-07-17T02:41:22.884Z,5.30
2017-07-17T02:43:52.222Z,5.93
2017-07-17T02:46:21.534Z,5.60
2017-07-17T02:48:50.860Z,6.00
2017-07-17T02:51:20.458Z,6.37
2017-07-17T02:53:49.788Z,5.90
2017-07-17T02:56:19.861Z,5.70
2017-07-17T02:58:49.181Z,6.72
2017-07-17T03:01:18.491Z,5.10
2017-07-17T03:03:47.815Z,6.32
2017-07-17T03:06:17.148Z,5.82
2017-07-17T03:08:46.505Z,6.25
2017-07-17T03:11:16.601Z,5.60
2017-07-17T03:13:45.930Z,6.18
2017-07-17T03:16:15.265Z,6.93
2017-07-17T03:18:44.577Z,5.22
2017-07-17T03:21:13.902Z,5.57
2017-07-17T03:24:00.856Z,5.18
2017-07-17T03:26:30.189Z,6.20
2017-07-17T03:28:59.505Z,5.15
2017-07-17T03:31:28.839Z,6.30
2017-07-17T03:33:58.137Z,6.12
2017-07-17T03:36:27.484Z,5.80
2017-07-17T03:38:56.829Z,5.85
2017-07-17T03:41:26.153Z,5.20
2017-07-17T03:43:56.253Z,5.72
2017-07-17T03:46:25.573Z,5.40
2017-07-17T03:48:54.881Z,6.10
2017-07-17T03:51:24.969Z,5.68
2017-07-17T03:53:54.287Z,5.55
2017-07-17T03:56:23.609Z,5.62
2017-07-17T03:58:53.694Z,5.90
2017-07-17T04:01:23.002Z,5.82
2017-07-17T04:03:52.360Z,5.95
2017-07-17T04:06:21.676Z,5.85
2017-07-17T04:08:50.990Z,5.40
2017-07-17T04:11:20.396Z,5.30
2017-07-17T04:13:49.819Z,5.20
2017-07-17T04:16:19.127Z,5.60
2017-07-17T04:18:49.229Z,5.60
2017-07-17T04:21:18.626Z,5.60
2017-07-17T04:23:48.777Z,6.37
2017-07-17T04:26:18.116Z,6.00
2017-07-17T04:28:47.441Z,4.72
2017-07-17T04:31:16.756Z,5.95
2017-07-17T04:33:48.395Z,5.60
2017-07-17T04:36:17.824Z,5.95
2017-07-17T04:38:47.773Z,5.90
2017-07-17T04:41:17.897Z,5.65
2017-07-17T04:43:47.342Z,7.35
2017-07-17T04:46:16.858Z,6.40
2017-07-17T04:48:46.161Z,7.07
2017-07-17T04:51:15.497Z,7.30
2017-07-17T04:53:45.717Z,7.07
2017-07-17T04:56:16.185Z,6.28
2017-07-17T04:58:45.499Z,7.00
2017-07-17T05:01:14.830Z,6.95
2017-07-17T05:03:44.138Z,7.18
2017-07-17T05:06:13.441Z,6.57
2017-07-17T05:08:42.776Z,6.20
2017-07-17T05:11:12.100Z,6.62
2017-07-17T05:13:41.479Z,6.18
2017-07-17T05:16:10.793Z,6.35
2017-07-17T05:18:40.126Z,6.25
2017-07-17T05:21:09.449Z,5.53
2017-07-17T05:23:38.784Z,5.70
2017-07-17T05:26:08.130Z,5.75
2017-07-17T05:28:37.533Z,5.68
2017-07-17T05:31:09.636Z,5.62
2017-07-17T05:33:39.121Z,6.57
2017-07-17T05:36:08.529Z,6.03
2017-07-17T05:38:37.864Z,5.55
2017-07-17T05:41:07.905Z,5.50
2017-07-17T05:43:37.256Z,5.07
2017-07-17T05:46:06.577Z,5.60
2017-07-17T05:48:35.909Z,6.30
2017-07-17T05:51:05.241Z,5.80
2017-07-17T05:53:34.563Z,5.70
2017-07-17T05:56:03.879Z,5.50
2017-07-17T05:58:34.006Z,5.40
2017-07-17T06:01:04.112Z,5.40
2017-07-17T06:03:34.199Z,5.25
2017-07-17T06:06:03.544Z,5.78
2017-07-17T06:08:33.605Z,5.72
2017-07-17T06:11:02.964Z,6.00
2017-07-17T06:13:32.288Z,5.45
2017-07-17T06:16:01.594Z,5.30
2017-07-17T06:18:30.929Z,6.00
2017-07-17T06:21:00.243Z,5.43
2017-07-17T06:23:29.579Z,5.82
2017-07-17T06:25:58.914Z,5.20
2017-07-17T06:28:28.270Z,5.87
2017-07-17T06:30:58.390Z,5.82
2017-07-17T06:33:27.777Z,4.72
2017-07-17T06:35:57.862Z,5.45
2017-07-17T06:38:27.200Z,5.10
2017-07-17T06:40:56.748Z,5.18
2017-07-17T06:43:26.074Z,5.10
2017-07-17T06:45:55.401Z,4.72
2017-07-17T06:48:24.749Z,5.53
2017-07-17T06:50:54.072Z,4.53
2017-07-17T06:53:23.383Z,4.60
2017-07-17T06:55:52.709Z,5.30
2017-07-17T06:58:22.029Z,5.47
2017-07-17T07:00:52.131Z,5.10
2017-07-17T07:03:21.456Z,5.50
2017-07-17T07:05:51.549Z,5.00
2017-07-17T07:08:20.857Z,4.60
2017-07-17T07:10:50.196Z,5.22
2017-07-17T07:13:19.522Z,4.80
2017-07-17T07:15:48.862Z,4.50
2017-07-17T07:18:18.946Z,5.22
2017-07-17T07:20:48.285Z,4.55
2017-07-17T07:23:18.384Z,4.82
2017-07-17T07:25:47.733Z,4.85
2017-07-17T07:28:17.045Z,4.32
2017-07-17T07:30:46.405Z,4.03
2017-07-17T07:33:15.738Z,4.20
2017-07-17T07:35:45.110Z,4.10
2017-07-17T07:38:14.426Z,4.27
2017-07-17T07:40:44.516Z,4.25
2017-07-17T07:43:13.830Z,4.23
2017-07-17T07:45:43.189Z,4.33
2017-07-17T07:48:12.492Z,3.73
2017-07-17T07:50:41.865Z,3.90
2017-07-17T07:53:11.273Z,4.30
2017-07-17T07:55:40.597Z,4.50
2017-07-17T07:58:09.921Z,3.80
2017-07-17T08:00:39.247Z,3.40
2017-07-17T08:03:08.580Z,3.20
2017-07-17T08:05:37.893Z,3.80
2017-07-17T08:08:07.221Z,4.00
2017-07-17T08:10:36.533Z,3.30
2017-07-17T08:13:05.860Z,3.70
2017-07-17T08:15:35.948Z,3.20
2017-07-17T08:18:05.267Z,3.90
2017-07-17T08:20:34.589Z,3.90
2017-07-17T08:23:03.949Z,3.63
2017-07-17T08:25:33.258Z,3.00
2017-07-17T08:28:02.569Z,2.90
2017-07-17T08:30:31.892Z,3.40
2017-07-17T08:33:01.292Z,3.30
2017-07-17T08:35:30.618Z,3.10
2017-07-17T08:37:59.929Z,2.73
2017-07-17T08:40:29.259Z,3.00
2017-07-17T08:42:58.567Z,3.67
2017-07-17T08:45:29.540Z,2.77
2017-07-17T08:48:02.035Z,3.40
2017-07-17T08:50:33.833Z,3.20
2017-07-17T08:53:04.357Z,3.20
2017-07-17T08:55:33.888Z,3.07
2017-07-17T08:58:03.233Z,3.00
2017-07-17T09:00:42.431Z,6.97
2017-07-17T09:03:20.896Z,2.72
2017-07-17T09:06:15.619Z,2.60
2017-07-17T09:08:47.337Z,2.50
2017-07-17T09:11:17.441Z,2.80
2017-07-17T09:13:46.753Z,2.33
2017-07-17T09:16:18.075Z,2.47
2017-07-17T09:18:47.405Z,2.40
2017-07-17T09:21:16.844Z,2.50
2017-07-17T09:23:47.182Z,2.43
2017-07-17T09:26:16.498Z,2.70
2017-07-17T09:28:46.597Z,2.57
2017-07-17T09:31:15.932Z,2.70
2017-07-17T09:33:45.338Z,2.93
2017-07-17T09:36:15.425Z,2.30
2017-07-17T09:38:44.786Z,2.70
2017-07-17T09:41:14.108Z,2.60
2017-07-17T09:43:43.453Z,2.50
2017-07-17T09:46:13.545Z,2.63
2017-07-17T09:48:42.908Z,2.70
2017-07-17T09:51:12.249Z,3.77
2017-07-17T09:53:41.579Z,2.77
2017-07-17T09:56:10.935Z,2.87
2017-07-17T09:58:40.293Z,2.90
2017-07-17T10:01:09.751Z,2.70
2017-07-17T10:03:39.078Z,3.20
2017-07-17T10:06:09.233Z,2.50
2017-07-17T10:08:38.559Z,2.70
2017-07-17T10:11:07.925Z,2.63
2017-07-17T10:13:37.259Z,2.93
2017-07-17T10:16:06.577Z,2.40
2017-07-17T10:18:35.980Z,3.00
2017-07-17T10:21:05.363Z,2.50
2017-07-17T10:23:34.701Z,2.20
2017-07-17T10:26:04.110Z,2.70
2017-07-17T10:28:33.461Z,2.37
2017-07-17T10:31:03.840Z,2.70
2017-07-17T10:33:33.173Z,2.80
2017-07-17T10:36:03.289Z,2.83
2017-07-17T10:38:32.721Z,2.53
2017-07-17T10:41:02.037Z,2.50
2017-07-17T10:43:31.373Z,2.47
2017-07-17T10:46:00.691Z,2.73
2017-07-17T10:48:30.024Z,2.30
2017-07-17T10:50:59.334Z,2.63
2017-07-17T10:53:28.665Z,1.90
2017-07-17T10:55:57.974Z,2.13
2017-07-17T10:58:27.290Z,2.43
2017-07-17T11:00:56.627Z,2.65
2017-07-17T11:03:25.946Z,2.65
2017-07-17T11:05:55.277Z,2.70
2017-07-17T11:08:24.583Z,2.40
2017-07-17T11:10:53.926Z,2.60
2017-07-17T11:13:23.238Z,2.60
2017-07-17T11:15:52.666Z,2.50
2017-07-17T11:18:21.975Z,2.80
2017-07-17T11:20:51.333Z,2.37
2017-07-17T11:23:20.701Z,2.53
2017-07-17T11:25:50.020Z,2.10
2017-07-17T11:28:20.109Z,2.97
2017-07-17T11:30:49.417Z,3.47
2017-07-17T11:33:18.747Z,2.53
2017-07-17T11:35:48.834Z,2.13
2017-07-17T11:38:18.164Z,2.40
2017-07-17T11:40:48.241Z,2.23
2017-07-17T11:43:17.569Z,2.13
2017-07-17T11:45:46.897Z,2.57
2017-07-17T11:58:28.233Z,2.70
2017-07-17T12:00:57.534Z,2.77
2017-07-17T12:03:26.927Z,2.53
2017-07-17T12:05:56.253Z,2.57
2017-07-17T12:08:26.368Z,2.67
2017-07-17T12:10:56.450Z,2.60
2017-07-17T12:13:25.769Z,2.50
2017-07-17T12:15:57.080Z,2.83
2017-07-17T12:18:26.383Z,2.37
2017-07-17T12:20:55.844Z,2.67
2017-07-17T12:23:25.289Z,3.00
2017-07-17T12:25:54.638Z,2.70
2017-07-17T12:28:23.944Z,2.20
2017-07-17T12:30:53.398Z,2.63
2017-07-17T12:33:22.853Z,2.50
2017-07-17T12:35:52.254Z,2.50
2017-07-17T12:38:21.562Z,2.70
2017-07-17T12:40:51.994Z,2.83
2017-07-17T12:43:22.245Z,2.80
2017-07-17T12:45:51.581Z,2.87
2017-07-17T12:48:20.930Z,2.60
2017-07-17T12:50:50.996Z,2.33
2017-07-17T12:53:20.638Z,2.87
2017-07-17T12:55:55.105Z,2.93
2017-07-17T12:58:24.512Z,2.43
2017-07-17T13:00:53.816Z,2.87
2017-07-17T13:03:23.133Z,3.07
2017-07-17T13:05:52.444Z,2.53
2017-07-17T13:08:21.765Z,2.40
2017-07-17T13:10:51.141Z,2.80
2017-07-17T13:13:20.558Z,2.60
2017-07-17T13:15:49.926Z,2.40
2017-07-17T13:18:19.272Z,2.87
2017-07-17T13:20:48.576Z,2.70
2017-07-17T13:23:17.880Z,2.80
2017-07-17T13:25:47.209Z,2.80
2017-07-17T13:28:16.536Z,2.87
2017-07-17T13:30:45.875Z,2.73
2017-07-17T13:33:15.187Z,2.43
2017-07-17T13:35:44.513Z,2.50
2017-07-17T13:38:14.573Z,2.67
2017-07-17T13:40:43.942Z,2.80
2017-07-17T13:43:13.262Z,2.90
2017-07-17T13:45:42.590Z,2.80
2017-07-17T13:48:11.893Z,2.43
2017-07-17T13:50:41.232Z,2.47
2017-07-17T13:53:11.324Z,2.47
2017-07-17T13:55:40.682Z,2.20
2017-07-17T13:58:09.986Z,2.60
2017-07-17T14:00:39.295Z,2.70
2017-07-17T14:03:08.633Z,2.40
2017-07-17T14:05:37.936Z,2.33
2017-07-17T14:08:07.267Z,2.93
2017-07-17T14:10:36.582Z,2.50
2017-07-17T14:13:05.922Z,2.30
2017-07-17T14:15:35.237Z,2.67
2017-07-17T14:18:04.574Z,2.90
2017-07-17T14:20:33.888Z,2.47
2017-07-17T14:23:03.212Z,2.63
2017-07-17T14:25:32.555Z,2.40
2017-07-17T14:28:01.892Z,2.40
2017-07-17T14:30:31.209Z,2.17
2017-07-17T14:33:00.508Z,3.10
2017-07-17T14:35:29.844Z,2.27
2017-07-17T14:37:59.156Z,2.60
2017-07-17T14:40:28.521Z,2.40
2017-07-17T14:42:57.846Z,3.00
2017-07-17T14:45:27.168Z,2.37
2017-07-17T14:47:57.264Z,2.30
2017-07-17T14:50:26.601Z,2.00
2017-07-17T14:52:55.924Z,2.60
2017-07-17T14:55:25.239Z,2.70
2017-07-17T14:57:54.564Z,2.87
2017-07-17T15:00:23.923Z,2.90
2017-07-17T15:02:53.236Z,2.77
2017-07-17T15:05:22.556Z,2.17
2017-07-17T15:07:51.884Z,3.27
2017-07-17T15:10:21.192Z,2.60
2017-07-17T15:12:50.520Z,2.30
2017-07-17T15:15:19.900Z,2.50
2017-07-17T15:17:49.224Z,2.20
2017-07-17T15:20:18.548Z,2.40
2017-07-17T15:22:47.869Z,2.90
2017-07-17T15:25:17.185Z,2.57
2017-07-17T15:27:46.509Z,2.40
2017-07-17T15:30:15.827Z,1.87
2017-07-17T15:32:45.945Z,2.17
2017-07-17T15:35:16.025Z,2.50
2017-07-17T15:37:45.362Z,2.43
2017-07-17T15:40:14.678Z,2.37
2017-07-17T15:42:44.011Z,2.53
2017-07-17T15:45:13.336Z,3.07
2017-07-17T15:47:42.673Z,2.10
2017-07-17T15:50:12.137Z,2.50
2017-07-17T15:52:41.461Z,2.33
2017-07-17T15:55:10.784Z,2.60
2017-07-17T15:57:40.870Z,2.73
2017-07-17T16:00:10.198Z,2.70
2017-07-17T16:02:40.344Z,2.17
2017-07-17T16:05:09.672Z,2.70
2017-07-17T16:07:38.991Z,2.40
2017-07-17T16:10:08.317Z,2.50
2017-07-17T16:12:37.618Z,2.50
2017-07-17T16:15:07.751Z,2.80
2017-07-17T16:17:37.086Z,2.50
2017-07-17T16:20:06.445Z,2.77
2017-07-17T16:22:36.525Z,2.47
2017-07-17T16:25:05.865Z,2.80
2017-07-17T16:27:35.235Z,2.93
2017-07-17T16:30:04.618Z,2.67
2017-07-17T16:32:34.018Z,4.23
2017-07-17T16:35:03.332Z,2.60
2017-07-17T16:37:32.674Z,2.63
2017-07-17T16:40:02.753Z,3.53
2017-07-17T16:42:32.093Z,3.17
2017-07-17T16:45:03.265Z,3.07
2017-07-17T16:47:32.605Z,2.47
2017-07-17T16:50:01.923Z,2.33
2017-07-17T16:52:31.356Z,2.70
2017-07-17T16:55:01.538Z,2.80
2017-07-17T16:57:31.001Z,2.53
2017-07-17T17:00:00.485Z,2.50
2017-07-17T17:02:31.057Z,2.40
2017-07-17T17:05:00.406Z,2.83
2017-07-17T17:07:29.761Z,2.40
2017-07-17T17:09:59.083Z,2.70
2017-07-17T17:12:28.429Z,3.07
2017-07-17T17:14:57.738Z,2.70
2017-07-17T17:17:27.040Z,2.97
2017-07-17T17:19:56.380Z,3.10
2017-07-17T17:22:25.690Z,2.83
2017-07-17T17:24:55.094Z,2.30
2017-07-17T17:27:24.395Z,2.40
2017-07-17T17:29:53.725Z,2.60
2017-07-17T17:32:23.049Z,2.60
2017-07-17T17:34:52.380Z,3.23
2017-07-17T17:37:21.761Z,2.57
2017-07-17T17:39:51.848Z,2.80
2017-07-17T17:42:21.209Z,3.23
2017-07-17T17:44:50.553Z,2.75
2017-07-17T17:47:19.882Z,2.87
2017-07-17T17:49:49.296Z,2.95
2017-07-17T17:52:18.625Z,3.10
2017-07-17T17:54:48.060Z,3.13
2017-07-17T17:57:17.401Z,3.42
2017-07-17T17:59:46.847Z,3.37
2017-07-17T18:02:16.175Z,2.90
2017-07-17T18:04:45.493Z,3.10
2017-07-17T18:07:15.584Z,2.70
2017-07-17T18:09:44.917Z,3.13
2017-07-17T18:12:14.377Z,3.30
2017-07-17T18:14:43.691Z,3.05
2017-07-17T18:17:13.073Z,3.27
2017-07-17T18:19:42.503Z,2.80
2017-07-17T18:22:11.829Z,3.53
2017-07-17T18:24:41.901Z,3.27
2017-07-17T18:27:11.257Z,3.60
2017-07-17T18:29:40.572Z,3.28
2017-07-17T18:32:09.966Z,3.08
2017-07-17T18:34:39.303Z,3.35
2017-07-17T18:37:08.880Z,3.47
2017-07-17T18:39:38.218Z,3.60
2017-07-17T18:42:07.541Z,4.07
2017-07-17T18:44:36.918Z,3.87
2017-07-17T18:47:06.278Z,3.95
2017-07-17T18:49:35.619Z,3.80
2017-07-17T18:52:04.964Z,3.62
2017-07-17T18:54:35.622Z,3.55
2017-07-17T18:57:04.938Z,4.20
2017-07-17T18:59:34.300Z,4.22
2017-07-17T19:02:03.618Z,4.28
2017-07-17T19:04:33.012Z,3.90
2017-07-17T19:07:03.128Z,3.65
2017-07-17T19:09:33.237Z,3.90
2017-07-17T19:12:02.566Z,3.85
2017-07-17T19:14:31.894Z,3.50
2017-07-17T19:17:01.244Z,4.00
2017-07-17T19:19:31.339Z,3.80
2017-07-17T19:22:00.673Z,3.53
2017-07-17T19:24:30.813Z,3.80
2017-07-17T19:27:00.165Z,3.85
2017-07-17T19:29:29.570Z,3.37
2017-07-17T19:31:58.896Z,3.80
2017-07-17T19:34:28.314Z,3.47
2017-07-17T19:36:57.638Z,4.40
2017-07-17T19:39:26.973Z,4.00
2017-07-17T19:41:56.317Z,4.20
2017-07-17T19:44:26.406Z,4.10
2017-07-17T19:46:55.732Z,4.70
2017-07-17T19:49:25.860Z,4.10
2017-07-17T19:51:55.965Z,4.00
2017-07-17T19:54:25.310Z,3.62
2017-07-17T19:56:54.635Z,3.95
2017-07-17T19:59:23.972Z,4.82
2017-07-17T20:01:53.305Z,4.72
2017-07-17T20:04:22.702Z,4.45
2017-07-17T20:06:52.036Z,4.32
2017-07-17T20:09:21.402Z,4.25
2017-07-17T20:11:50.811Z,3.90
2017-07-17T20:14:20.221Z,5.00
2017-07-17T20:16:49.514Z,4.40
2017-07-17T20:19:18.854Z,4.40
2017-07-17T20:21:48.163Z,4.28
2017-07-17T20:24:17.514Z,4.55
2017-07-17T20:26:47.603Z,4.43
2017-07-17T20:29:16.930Z,4.28
2017-07-17T20:31:47.004Z,4.55
2017-07-17T20:34:16.329Z,4.72
2017-07-17T20:36:45.685Z,3.87
2017-07-17T20:39:15.039Z,4.03
2017-07-17T20:41:45.124Z,5.35
2017-07-17T20:44:17.877Z,4.57
2017-07-17T20:46:47.515Z,4.32
2017-07-17T20:49:16.942Z,4.32
2017-07-17T20:51:46.264Z,5.00
2017-07-17T20:54:16.341Z,5.00
2017-07-17T20:56:46.649Z,4.30
2017-07-17T20:59:16.121Z,5.10
2017-07-17T21:01:46.208Z,4.78
2017-07-17T21:04:15.517Z,4.45
2017-07-17T21:06:44.852Z,4.78
2017-07-17T21:09:14.921Z,4.80
2017-07-17T21:11:44.251Z,4.40
2017-07-17T21:14:13.582Z,4.95
2017-07-17T21:16:42.912Z,4.37
2017-07-17T21:19:12.344Z,4.75
2017-07-17T21:21:41.677Z,4.40
2017-07-17T21:24:10.989Z,4.80
2017-07-17T21:26:40.331Z,4.45
2017-07-17T21:29:09.651Z,4.93
2017-07-17T21:31:38.952Z,5.75
2017-07-17T21:34:08.302Z,4.55
2017-07-17T21:36:37.616Z,4.95
2017-07-17T21:39:06.944Z,4.85
2017-07-17T21:41:36.999Z,5.82
2017-07-17T21:44:07.089Z,5.05
2017-07-17T21:46:36.396Z,5.00
2017-07-17T21:49:05.721Z,4.30
2017-07-17T21:51:35.817Z,4.00
2017-07-17T21:54:05.160Z,5.45
2017-07-17T21:56:34.515Z,6.12
2017-07-17T21:59:03.845Z,5.65
2017-07-17T22:01:33.934Z,5.18
2017-07-17T22:04:03.261Z,5.80
2017-07-17T22:06:32.581Z,5.28
2017-07-17T22:09:02.655Z,4.95
2017-07-17T22:11:31.991Z,5.18
2017-07-17T22:14:02.071Z,4.53
2017-07-17T22:16:31.409Z,5.05
2017-07-17T22:19:01.497Z,5.35
2017-07-17T22:21:30.837Z,4.65
2017-07-17T22:24:00.916Z,4.93
2017-07-17T22:26:30.262Z,4.70
2017-07-17T22:29:00.331Z,5.65
2017-07-17T22:31:29.698Z,5.68
2017-07-17T22:33:59.030Z,5.22
2017-07-17T22:36:28.385Z,5.40
2017-07-17T22:38:58.489Z,4.70
2017-07-17T22:41:28.615Z,5.20
2017-07-17T22:43:58.097Z,5.45
2017-07-17T22:46:30.021Z,5.78
2017-07-17T22:48:59.398Z,5.85
2017-07-17T22:51:29.489Z,5.57
2017-07-17T22:53:58.817Z,5.97
2017-07-17T22:56:28.929Z,5.80
2017-07-17T22:58:58.302Z,5.50
2017-07-17T23:01:27.613Z,6.37
2017-07-17T23:03:56.912Z,4.90
2017-07-17T23:06:26.257Z,6.22
2017-07-17T23:08:56.427Z,5.30
2017-07-17T23:11:25.822Z,5.32
2017-07-17T23:13:55.198Z,5.95
2017-07-17T23:16:24.513Z,5.50
2017-07-17T23:18:53.828Z,6.30
2017-07-17T23:21:23.309Z,5.57
2017-07-17T23:23:52.640Z,4.85
2017-07-17T23:26:22.237Z,5.18
2017-07-17T23:28:51.661Z,5.37
2017-07-17T23:31:20.982Z,6.10
2017-07-17T23:33:50.302Z,5.75
2017-07-17T23:36:20.389Z,6.47
2017-07-17T23:38:49.729Z,6.10
2017-07-17T23:41:19.037Z,5.68
2017-07-17T23:43:48.372Z,6.12
2017-07-17T23:46:17.689Z,5.68
2017-07-17T23:48:47.022Z,5.65
2017-07-17T23:51:16.343Z,5.70
2017-07-17T23:53:45.673Z,5.60
2017-07-17T23:56:14.984Z,5.65
2017-07-17T23:58:44.301Z,5.25
